Latest Weather Observations for Bowen Airport AWS

IDQ60801

Issued at 1:32 pm EST Saturday 23 September 2017 (issued every 30 minutes, with the page automatically refreshed every 10 minutes)

About weather observations | Map of weather stations | Latest weather observations for QLD | Other Formats
Station Details ID: 033327 Name: BOWEN AIRPORT AWS Lat: -20.02 Lon: 148.21 Height: 5.9 m
Data from the previous 72 hours. | See also: Recent months at Bowen Airport AWS
Date/Time
EST
Temp
°C
App
Temp
°C
Dew
Point
°C
Rel
Hum
%
Delta-T
°C
Wind Press
QNH
hPa
Press
MSL
hPa
Rain since
9am
mm
Dir  Spd
km/h
Gust
km/h
Spd
kts
Gust
kts
23/01:30pm 27.1 25.8 16.7 53 6.5 NNE 19 24 10 13 1015.9 1015.8 0.0
23/01:00pm 26.8 25.5 16.7 54 6.3 NNE 19 24 10 13 1016.2 1016.1 0.0
23/12:30pm 26.6 25.8 16.2 52 6.4 NE 15 20 8 11 1016.7 1016.6 0.0
23/12:00pm 26.1 25.6 16.9 57 5.7 NE 15 20 8 11 1017.2 1017.1 0.0
23/11:30am 26.0 26.1 17.4 59 5.4 NE 13 24 7 13 1017.7 1017.6 0.0
23/11:00am 25.9 25.8 17.0 58 5.5 ENE 13 24 7 13 1018.0 1017.9 0.0
23/10:30am 26.6 26.6 17.1 56 5.9 ENE 13 17 7 9 1018.3 1018.2 0.0
23/10:00am 25.5 25.5 18.2 64 4.6 ESE 15 22 8 12 1018.4 1018.3 0.0
23/09:30am 24.4 25.3 18.3 69 3.8 ESE 11 17 6 9 1018.5 1018.4 0.0
23/09:00am 24.4 25.3 19.2 73 3.3 ESE 13 17 7 9 1018.4 1018.3 0.0
23/08:30am 24.3 25.3 19.4 74 3.1 ESE 13 15 7 8 1018.3 1018.2 0.0
23/08:00am 23.6 24.6 19.5 78 2.6 ESE 13 17 7 9 1018.0 1017.9 0.0
23/07:30am 22.8 24.6 19.6 82 2.0 SE 9 13 5 7 1017.9 1017.8 0.0
23/07:00am 21.3 23.4 19.4 89 1.2 ESE 7 9 4 5 1017.5 1017.4 0.0
23/06:30am 19.2 21.0 18.2 94 0.6 ESE 6 6 3 3 1017.2 1017.1 0.0
23/06:00am 19.3 21.1 18.3 94 0.6 ESE 6 7 3 4 1016.9 1016.8 0.0
23/05:30am 19.6 21.3 18.6 94 0.6 ESE 7 9 4 5 1016.7 1016.6 0.0
23/05:00am 19.5 21.1 18.2 92 0.8 ESE 7 7 4 4 1016.4 1016.3 0.0
23/04:30am 20.3 22.3 18.8 91 0.9 E 6 9 3 5 1016.3 1016.2 0.0
23/04:00am 20.6 23.0 18.7 89 1.2 E 4 6 2 3 1015.9 1015.8 0.0
23/03:30am 21.5 24.4 21.0 97 0.3 ENE 7 11 4 6 1015.9 1015.8 0.0
23/03:00am 18.6 20.7 17.3 92 0.8 NE 2 6 1 3 1016.0 1015.9 0.0
23/02:30am 18.2 20.4 16.5 90 1.0 CALM 0 0 0 0 1016.2 1016.1 0.0
23/02:00am 19.5 20.7 15.8 79 2.2 NE 4 6 2 3 1016.4 1016.3 0.0
23/01:30am 21.4 23.5 19.0 86 1.5 NE 6 7 3 4 1016.6 1016.5 0.0
23/01:00am 21.7 23.9 19.3 86 1.5 NE 6 7 3 4 1017.0 1016.9 0.0
23/12:30am 21.8 23.8 19.2 85 1.6 NE 7 9 4 5 1017.1 1017.0 0.0
23/12:00am 22.1 24.2 19.3 84 1.8 NE 7 9 4 5 1017.3 1017.2 0.0
 
Date/Time
EST
Temp
°C
App
Temp
°C
Dew
Point
°C
Rel
Hum
%
Delta-T
°C
Wind Press
QNH
hPa
Press
MSL
hPa
Rain since
9am
mm
Dir  Spd
km/h
Gust
km/h
Spd
kts
Gust
kts
22/11:30pm 22.3 24.5 19.5 84 1.8 NE 7 11 4 6 1017.5 1017.4 0.0
22/11:00pm 22.2 24.3 19.4 84 1.8 NE 7 11 4 6 1017.6 1017.5 0.0
22/10:30pm 22.2 24.2 19.2 83 1.9 NE 7 9 4 5 1017.7 1017.6 0.0
22/10:00pm 22.5 24.6 19.3 82 2.0 NE 7 9 4 5 1017.7 1017.6 0.0
22/09:30pm 22.7 24.9 19.5 82 2.0 NE 7 11 4 6 1017.6 1017.5 0.0
22/09:00pm 22.8 25.0 19.6 82 2.0 NE 7 9 4 5 1017.6 1017.5 0.0
22/08:30pm 22.9 25.3 19.7 82 2.1 NE 6 9 3 5 1017.5 1017.4 0.0
22/08:00pm 23.1 25.3 19.5 80 2.3 NE 7 11 4 6 1017.2 1017.1 0.0
22/07:30pm 23.3 25.1 19.5 79 2.4 NE 9 13 5 7 1016.9 1016.8 0.0
22/07:00pm 23.6 25.0 19.5 78 2.6 NE 11 17 6 9 1016.5 1016.4 0.0
22/06:30pm 23.8 24.7 19.3 76 2.9 NNE 13 19 7 10 1016.2 1016.1 0.0
22/06:00pm 24.0 25.0 19.5 76 2.9 NE 13 19 7 10 1016.0 1015.9 0.0
22/05:30pm 24.5 25.0 19.3 73 3.3 NNE 15 20 8 11 1015.8 1015.7 0.0
22/05:00pm 25.1 25.7 19.5 71 3.6 NE 15 22 8 12 1015.6 1015.5 0.0
22/04:30pm 25.5 25.3 19.4 69 3.9 NE 19 24 10 13 1015.3 1015.2 0.0
22/04:00pm 26.2 26.3 19.1 65 4.6 NNE 17 22 9 12 1015.1 1015.0 0.0
22/03:30pm 26.4 26.4 19.0 63 4.7 NNE 17 26 9 14 1015.1 1015.0 0.0
22/03:00pm 26.8 26.2 17.6 57 5.8 NE 17 24 9 13 1015.1 1015.0 0.0
22/02:30pm 26.7 25.6 16.3 53 6.4 NNE 17 22 9 12 1015.3 1015.2 0.0
22/02:00pm 26.6 26.6 18.2 60 5.3 NNE 15 22 8 12 1015.7 1015.6 0.0
22/01:30pm 27.4 27.2 18.4 58 5.7 NE 17 22 9 12 1016.0 1015.9 0.0
22/01:00pm 27.4 26.9 17.8 55 6.1 NNE 17 26 9 14 1016.3 1016.2 0.0
22/12:30pm 27.0 26.2 18.0 58 5.7 NNE 19 26 10 14 1016.7 1016.6 0.0
22/12:00pm 27.4 27.7 17.8 55 6.1 NNE 13 19 7 10 1017.1 1017.0 0.0
22/11:30am 27.3 27.6 18.0 56 5.9 NNE 13 26 7 14 1017.5 1017.4 0.0
22/11:00am 27.3 27.4 17.5 55 6.2 NNE 13 19 7 10 1018.0 1017.9 0.0
22/10:30am 27.0 27.7 18.0 58 5.7 ENE 11 17 6 9 1018.2 1018.1 0.0
22/10:00am 25.2 25.9 18.9 68 4.0 ESE 13 17 7 9 1018.5 1018.4 0.0
22/09:30am 24.8 26.6 19.6 73 3.3 ESE 9 13 5 7 1018.6 1018.5 0.0
22/09:00am 23.7 25.2 19.0 75 3.0 ESE 9 13 5 7 1018.7 1018.6 0.0
22/08:30am 24.2 26.4 19.7 76 2.9 ESE 7 9 4 5 1018.6 1018.5 0.0
22/08:00am 23.1 25.3 19.5 80 2.3 SE 7 9 4 5 1018.5 1018.4 0.0
22/07:30am 21.6 24.4 18.8 84 1.8 SW 2 6 1 3 1018.0 1017.9 0.0
22/07:00am 19.2 21.3 18.0 93 0.7 SW 4 6 2 3 1017.7 1017.6 0.0
22/06:30am 18.0 19.1 17.2 95 0.5 SW 7 9 4 5 1017.6 1017.5 0.0
22/06:00am 17.8 18.8 16.8 94 0.6 SW 7 9 4 5 1017.1 1017.0 0.0
22/05:30am 18.1 18.8 17.0 93 0.7 SW 9 11 5 6 1016.5 1016.4 0.0
22/05:00am 18.7 19.6 17.5 93 0.7 SSW 9 11 5 6 1016.1 1016.0 0.0
22/04:30am 19.9 21.7 18.2 90 1.1 ENE 6 9 3 5 1015.7 1015.6 0.0
22/04:00am 20.7 23.7 19.2 91 0.9 ENE 2 4 1 2 1015.0 1014.9 0.0
22/03:30am 21.0 22.3 19.3 90 1.1 E 11 13 6 7 1014.7 1014.6 0.0
22/03:00am 20.4 21.7 18.5 89 1.2 SE 9 11 5 6 1015.3 1015.2 0.0
22/02:30am 20.3 21.4 18.1 87 1.4 SE 9 13 5 7 1015.6 1015.5 0.0
22/02:00am 21.2 22.0 19.1 88 1.3 SE 13 17 7 9 1015.7 1015.6 0.0
22/01:30am 21.4 22.4 19.5 89 1.2 SE 13 17 7 9 1016.1 1016.0 0.0
22/01:00am 21.1 23.1 19.2 89 1.2 ENE 7 11 4 6 1016.4 1016.3 0.0
22/12:30am 20.9 22.9 18.7 87 1.4 ENE 6 7 3 4 1016.6 1016.5 0.0
22/12:00am 21.4 23.4 18.8 85 1.6 ENE 6 6 3 3 1016.8 1016.7 0.0
 
Date/Time
EST
Temp
°C
App
Temp
°C
Dew
Point
°C
Rel
Hum
%
Delta-T
°C
Wind Press
QNH
hPa
Press
MSL
hPa
Rain since
9am
mm
Dir  Spd
km/h
Gust
km/h
Spd
kts
Gust
kts
21/11:30pm 21.4 23.7 18.6 84 1.8 ENE 4 6 2 3 1017.3 1017.2 0.0
21/11:00pm 21.8 23.6 18.8 83 1.9 ENE 7 9 4 5 1017.4 1017.3 0.0
21/10:30pm 21.9 23.7 18.7 82 2.0 ENE 7 7 4 4 1017.4 1017.3 0.0
21/10:00pm 22.4 24.3 19.0 81 2.1 ENE 7 7 4 4 1017.4 1017.3 0.0
21/09:30pm 22.8 24.4 19.2 80 2.3 NE 9 11 5 6 1017.2 1017.1 0.0
21/09:00pm 23.2 24.5 19.2 78 2.5 ENE 11 15 6 8 1017.0 1016.9 0.0
21/08:30pm 22.9 24.9 19.1 79 2.4 NE 7 11 4 6 1016.8 1016.7 0.0
21/08:00pm 23.3 24.8 19.0 77 2.7 NE 9 15 5 8 1016.6 1016.5 0.0
21/07:30pm 23.3 24.9 19.2 78 2.6 NE 9 15 5 8 1016.4 1016.3 0.0
21/07:00pm 23.4 25.1 19.3 78 2.6 NE 9 13 5 7 1016.1 1016.0 0.0
21/06:30pm 23.3 25.3 19.2 78 2.6 NE 7 11 4 6 1015.7 1015.6 0.0
21/06:00pm 23.6 24.3 18.9 75 3.0 NE 13 15 7 8 1015.2 1015.1 0.0
21/05:30pm 24.2 24.5 18.8 72 3.4 NE 15 19 8 10 1014.9 1014.8 0.0
21/05:00pm 24.6 24.6 19.0 71 3.6 NE 17 22 9 12 1014.6 1014.5 0.0
21/04:30pm 25.1 25.5 19.0 69 3.9 NNE 15 20 8 11 1014.5 1014.4 0.0
21/04:00pm 25.3 25.6 18.7 67 4.2 NNE 15 20 8 11 1014.4 1014.3 0.0
21/03:30pm 25.9 26.3 19.1 66 4.4 NE 15 24 8 13 1014.4 1014.3 0.0
21/03:00pm 26.2 26.5 19.6 67 4.3 NNE 17 24 9 13 1014.4 1014.3 0.0
21/02:30pm 25.7 25.9 18.6 65 4.5 NNE 15 24 8 13 1014.5 1014.4 0.0
21/02:00pm 26.4 27.2 19.0 63 4.7 N 13 20 7 11 1014.9 1014.8 0.0
21/01:30pm 25.9 26.1 18.6 64 4.6 NNE 15 20 8 11 1015.2 1015.1 0.0
21/01:00pm 26.8 27.5 18.9 62 5.1 N 13 19 7 10 1015.6 1015.5 0.0
21/12:30pm 26.9 27.0 17.4 56 6.0 N 13 20 7 11 1015.9 1015.8 0.0
21/12:00pm 26.5 27.0 18.4 61 5.1 N 13 20 7 11 1016.4 1016.3 0.0
21/11:30am 26.1 26.2 17.5 59 5.4 NNE 13 19 7 10 1016.8 1016.7 0.0
21/11:00am 26.4 26.8 17.2 57 5.7 NNE 11 15 6 8 1017.1 1017.0 0.0
21/10:30am 25.6 26.6 17.8 62 4.9 E 9 17 5 9 1017.4 1017.3 0.0
21/10:00am 25.0 26.1 18.9 69 3.9 ESE 11 15 6 8 1017.5 1017.4 0.0
21/09:30am 24.2 25.3 17.9 68 3.9 ESE 9 13 5 7 1017.7 1017.6 0.0
21/09:00am 23.9 25.0 17.9 69 3.7 E 9 11 5 6 1017.7 1017.6 0.0
21/08:30am 23.3 24.8 18.0 72 3.3 SE 7 9 4 5 1017.7 1017.6 0.0
21/08:00am 21.0 22.5 17.6 81 2.1 SSW 6 7 3 4 1017.6 1017.5 0.0
21/07:30am 18.5 19.6 17.2 92 0.8 SSW 7 9 4 5 1017.4 1017.3 0.0
21/07:00am 17.3 17.9 16.8 97 0.3 SSW 9 11 5 6 1017.1 1017.0 0.0
21/06:30am 16.1 16.3 15.8 98 0.2 S 9 11 5 6 1016.6 1016.5 0.0
21/06:00am 15.0 14.7 14.5 97 0.3 S 9 11 5 6 1016.3 1016.2 0.0
21/05:30am 15.1 14.9 14.6 97 0.3 S 9 11 5 6 1016.0 1015.9 0.0
21/05:00am 15.3 15.1 14.8 97 0.3 S 9 9 5 5 1015.8 1015.7 0.0
21/04:30am 15.6 15.6 15.1 97 0.3 S 9 9 5 5 1015.5 1015.4 0.0
21/04:00am 15.9 16.3 15.4 97 0.3 S 7 7 4 4 1015.3 1015.2 0.0
21/03:30am 16.0 16.1 15.4 96 0.3 S 9 9 5 5 1015.3 1015.2 0.0
21/03:00am 15.9 16.2 15.1 95 0.5 SSE 7 9 4 5 1015.2 1015.1 0.0
21/02:30am 16.5 16.7 15.7 95 0.5 ESE 9 9 5 5 1015.6 1015.5 0.0
21/02:00am 16.9 17.7 15.9 94 0.6 E 6 7 3 4 1015.9 1015.8 0.0
21/01:30am 16.9 17.5 15.9 94 0.6 E 7 7 4 4 1016.2 1016.1 0.0
21/01:00am 17.0 18.5 15.7 92 0.8 E 2 6 1 3 1016.2 1016.1 0.0
21/12:30am 17.6 19.3 16.1 91 0.9 E 2 2 1 1 1016.4 1016.3 0.0
21/12:00am 18.3 20.0 17.1 93 0.7 E 4 6 2 3 1016.5 1016.4 0.0
 
Date/Time
EST
Temp
°C
App
Temp
°C
Dew
Point
°C
Rel
Hum
%
Delta-T
°C
Wind Press
QNH
hPa
Press
MSL
hPa
Rain since
9am
mm
Dir  Spd
km/h
Gust
km/h
Spd
kts
Gust
kts
20/11:30pm 18.6 20.9 16.8 89 1.1 CALM 0 0 0 0 1016.6 1016.5 0.0
20/11:00pm 19.6 21.5 17.7 89 1.2 E 4 6 2 3 1016.7 1016.6 0.0
20/10:30pm 21.5 22.9 18.7 84 1.8 E 9 11 5 6 1016.6 1016.5 0.0
20/10:00pm 21.3 22.9 18.3 83 1.9 NE 7 9 4 5 1016.5 1016.4 0.0
20/09:30pm 21.7 23.5 18.3 81 2.1 NE 6 9 3 5 1016.5 1016.4 0.0
20/09:00pm 21.9 24.0 18.9 83 1.9 NE 6 7 3 4 1016.4 1016.3 0.0
20/08:30pm 22.3 24.0 19.3 83 1.9 NE 9 11 5 6 1016.4 1016.3 0.0
20/08:00pm 22.6 23.9 19.4 82 2.0 ENE 11 13 6 7 1016.2 1016.1 0.0
20/07:30pm 22.6 24.2 19.2 81 2.2 ENE 9 13 5 7 1016.0 1015.9 0.0
20/07:00pm 22.9 24.3 19.5 81 2.2 NE 11 17 6 9 1015.7 1015.6 0.0
20/06:30pm 23.2 24.0 19.8 81 2.2 NE 15 19 8 10 1015.2 1015.1 0.0
20/06:00pm 23.5 23.9 19.8 80 2.4 NE 17 22 9 12 1014.9 1014.8 0.0
20/05:30pm 24.0 24.0 19.7 77 2.8 NE 19 24 10 13 1014.7 1014.6 0.0
20/05:00pm 24.5 24.2 19.6 74 3.2 NNE 20 26 11 14 1014.2 1014.1 0.0
20/04:30pm 24.8 24.4 19.4 72 3.5 NE 20 26 11 14 1014.0 1013.9 0.0
20/04:00pm 25.2 23.9 19.1 69 3.9 NE 24 30 13 16 1013.9 1013.8 0.0
20/03:30pm 25.6 24.9 19.5 69 3.9 NNE 22 32 12 17 1013.9 1013.8 0.0
20/03:00pm 25.7 24.7 19.6 69 3.9 NNE 24 33 13 18 1014.0 1013.9 0.0
20/02:30pm 26.5 25.8 19.6 66 4.5 NNE 22 30 12 16 1014.3 1014.2 0.0
20/02:00pm 26.3 24.5 17.9 60 5.3 NE 24 32 13 17 1014.4 1014.3 0.0

Other Formats:

Comma delimited format used in spreadsheet applications
http://www.bom.gov.au/fwo/IDQ60801/IDQ60801.94383.axf

JavaScript Object Notation format (JSON) in row-major order
http://www.bom.gov.au/fwo/IDQ60801/IDQ60801.94383.json